sensor_id;sensor_type;location;lat;lon;timestamp;temperature;humidity
254;DHT22;590;48.772;8.846;2022-08-04T00:02:09;22.00;29.80
254;DHT22;590;48.772;8.846;2022-08-04T00:04:44;21.90;31.20
254;DHT22;590;48.772;8.846;2022-08-04T00:07:20;21.80;31.80
254;DHT22;590;48.772;8.846;2022-08-04T00:10:13;21.80;31.70
254;DHT22;590;48.772;8.846;2022-08-04T00:12:46;21.70;31.80
254;DHT22;590;48.772;8.846;2022-08-04T00:15:16;21.60;31.90
254;DHT22;590;48.772;8.846;2022-08-04T00:17:50;21.60;30.80
254;DHT22;590;48.772;8.846;2022-08-04T00:20:20;21.60;31.00
254;DHT22;590;48.772;8.846;2022-08-04T00:22:51;21.60;31.30
254;DHT22;590;48.772;8.846;2022-08-04T00:25:19;21.60;31.00
254;DHT22;590;48.772;8.846;2022-08-04T00:27:48;21.60;32.70
254;DHT22;590;48.772;8.846;2022-08-04T00:30:16;21.50;32.90
254;DHT22;590;48.772;8.846;2022-08-04T00:32:45;21.40;34.40
254;DHT22;590;48.772;8.846;2022-08-04T00:35:14;21.40;32.80
254;DHT22;590;48.772;8.846;2022-08-04T00:37:44;21.30;33.80
254;DHT22;590;48.772;8.846;2022-08-04T00:40:22;21.30;34.60
254;DHT22;590;48.772;8.846;2022-08-04T00:43:05;21.30;34.50
254;DHT22;590;48.772;8.846;2022-08-04T00:48:59;21.20;33.50
254;DHT22;590;48.772;8.846;2022-08-04T00:51:39;21.20;34.20
254;DHT22;590;48.772;8.846;2022-08-04T00:54:15;21.30;33.20
254;DHT22;590;48.772;8.846;2022-08-04T00:57:05;21.30;34.10
254;DHT22;590;48.772;8.846;2022-08-04T01:00:04;21.30;33.90
254;DHT22;590;48.772;8.846;2022-08-04T01:02:44;21.30;34.70
254;DHT22;590;48.772;8.846;2022-08-04T01:05:20;21.20;35.90
254;DHT22;590;48.772;8.846;2022-08-04T01:08:10;21.20;36.20
254;DHT22;590;48.772;8.846;2022-08-04T01:10:50;21.10;34.80
254;DHT22;590;48.772;8.846;2022-08-04T01:13:32;21.10;35.80
254;DHT22;590;48.772;8.846;2022-08-04T01:16:06;21.00;35.40
254;DHT22;590;48.772;8.846;2022-08-04T01:18:47;21.00;35.40
254;DHT22;590;48.772;8.846;2022-08-04T01:21:43;21.00;36.00
254;DHT22;590;48.772;8.846;2022-08-04T01:24:42;20.90;36.80
254;DHT22;590;48.772;8.846;2022-08-04T01:27:25;21.00;36.40
254;DHT22;590;48.772;8.846;2022-08-04T01:29:59;21.00;36.50
254;DHT22;590;48.772;8.846;2022-08-04T01:32:31;21.00;36.30
254;DHT22;590;48.772;8.846;2022-08-04T01:35:03;21.00;36.30
254;DHT22;590;48.772;8.846;2022-08-04T01:37:48;21.00;36.20
254;DHT22;590;48.772;8.846;2022-08-04T01:40:16;21.00;36.70
254;DHT22;590;48.772;8.846;2022-08-04T01:42:44;20.90;36.90
254;DHT22;590;48.772;8.846;2022-08-04T01:45:15;20.90;38.10
254;DHT22;590;48.772;8.846;2022-08-04T01:47:49;20.90;38.30
254;DHT22;590;48.772;8.846;2022-08-04T01:50:18;20.80;39.00
254;DHT22;590;48.772;8.846;2022-08-04T01:52:48;20.80;39.20
254;DHT22;590;48.772;8.846;2022-08-04T01:55:18;20.70;39.20
254;DHT22;590;48.772;8.846;2022-08-04T01:57:48;20.60;38.90
254;DHT22;590;48.772;8.846;2022-08-04T02:00:20;20.60;38.50
254;DHT22;590;48.772;8.846;2022-08-04T02:02:48;20.60;39.30
254;DHT22;590;48.772;8.846;2022-08-04T02:05:19;20.50;40.00
254;DHT22;590;48.772;8.846;2022-08-04T02:10:53;20.50;39.40
254;DHT22;590;48.772;8.846;2022-08-04T02:13:32;20.50;39.20
254;DHT22;590;48.772;8.846;2022-08-04T02:16:10;20.50;39.20
254;DHT22;590;48.772;8.846;2022-08-04T02:18:45;20.60;39.40
254;DHT22;590;48.772;8.846;2022-08-04T02:21:18;20.60;39.60
254;DHT22;590;48.772;8.846;2022-08-04T02:23:58;20.60;39.30
254;DHT22;590;48.772;8.846;2022-08-04T02:26:28;20.60;40.40
254;DHT22;590;48.772;8.846;2022-08-04T02:29:05;20.50;40.00
254;DHT22;590;48.772;8.846;2022-08-04T02:31:40;20.50;40.40
254;DHT22;590;48.772;8.846;2022-08-04T02:34:16;20.40;40.40
254;DHT22;590;48.772;8.846;2022-08-04T02:36:50;20.40;41.10
254;DHT22;590;48.772;8.846;2022-08-04T02:39:19;20.30;41.50
254;DHT22;590;48.772;8.846;2022-08-04T02:41:49;20.30;41.60
254;DHT22;590;48.772;8.846;2022-08-04T02:44:20;20.20;41.50
254;DHT22;590;48.772;8.846;2022-08-04T02:46:51;20.20;41.60
254;DHT22;590;48.772;8.846;2022-08-04T02:49:21;20.20;42.00
254;DHT22;590;48.772;8.846;2022-08-04T02:51:51;20.30;42.80
254;DHT22;590;48.772;8.846;2022-08-04T02:54:22;20.30;42.90
254;DHT22;590;48.772;8.846;2022-08-04T02:57:00;20.20;43.10
254;DHT22;590;48.772;8.846;2022-08-04T02:59:47;20.20;42.80
254;DHT22;590;48.772;8.846;2022-08-04T03:02:27;20.10;42.30
254;DHT22;590;48.772;8.846;2022-08-04T03:05:01;20.10;43.40
254;DHT22;590;48.772;8.846;2022-08-04T03:08:02;20.00;44.20
254;DHT22;590;48.772;8.846;2022-08-04T03:14:11;19.90;45.70
254;DHT22;590;48.772;8.846;2022-08-04T03:17:17;19.80;45.30
254;DHT22;590;48.772;8.846;2022-08-04T03:20:18;19.80;45.30
254;DHT22;590;48.772;8.846;2022-08-04T03:26:26;19.80;45.30
254;DHT22;590;48.772;8.846;2022-08-04T03:29:24;19.80;46.20
254;DHT22;590;48.772;8.846;2022-08-04T03:32:20;19.80;45.70
254;DHT22;590;48.772;8.846;2022-08-04T03:35:10;19.70;45.40
254;DHT22;590;48.772;8.846;2022-08-04T03:38:11;19.70;46.20
254;DHT22;590;48.772;8.846;2022-08-04T03:41:00;19.60;46.70
254;DHT22;590;48.772;8.846;2022-08-04T03:46:53;19.60;46.40
254;DHT22;590;48.772;8.846;2022-08-04T03:52:50;19.60;46.80
254;DHT22;590;48.772;8.846;2022-08-04T03:55:47;19.60;47.20
254;DHT22;590;48.772;8.846;2022-08-04T04:01:48;19.60;48.60
254;DHT22;590;48.772;8.846;2022-08-04T04:04:48;19.50;48.50
254;DHT22;590;48.772;8.846;2022-08-04T04:08:03;19.50;48.60
254;DHT22;590;48.772;8.846;2022-08-04T04:11:18;19.60;49.00
254;DHT22;590;48.772;8.846;2022-08-04T04:16:44;19.50;48.70
254;DHT22;590;48.772;8.846;2022-08-04T04:19:30;19.50;49.50
254;DHT22;590;48.772;8.846;2022-08-04T04:25:16;19.60;49.70
254;DHT22;590;48.772;8.846;2022-08-04T04:27:58;19.60;49.20
254;DHT22;590;48.772;8.846;2022-08-04T04:30:53;19.80;49.10
254;DHT22;590;48.772;8.846;2022-08-04T04:33:42;19.80;48.20
254;DHT22;590;48.772;8.846;2022-08-04T04:36:34;20.00;48.40
254;DHT22;590;48.772;8.846;2022-08-04T04:39:13;20.00;46.70
254;DHT22;590;48.772;8.846;2022-08-04T04:42:00;20.20;46.40
254;DHT22;590;48.772;8.846;2022-08-04T04:47:39;20.40;44.70
254;DHT22;590;48.772;8.846;2022-08-04T04:50:52;20.80;43.90
254;DHT22;590;48.772;8.846;2022-08-04T04:53:27;22.40;36.30
254;DHT22;590;48.772;8.846;2022-08-04T04:56:02;24.40;26.60
254;DHT22;590;48.772;8.846;2022-08-04T04:58:35;26.10;19.80
254;DHT22;590;48.772;8.846;2022-08-04T05:01:23;27.80;14.40
254;DHT22;590;48.772;8.846;2022-08-04T05:04:10;29.30;10.90
254;DHT22;590;48.772;8.846;2022-08-04T05:07:02;30.70;7.30
254;DHT22;590;48.772;8.846;2022-08-04T05:09:44;31.90;5.60
254;DHT22;590;48.772;8.846;2022-08-04T05:12:47;32.80;3.80
254;DHT22;590;48.772;8.846;2022-08-04T05:15:42;33.50;2.60
254;DHT22;590;48.772;8.846;2022-08-04T05:18:15;34.40;1.00
254;DHT22;590;48.772;8.846;2022-08-04T05:20:50;35.10;1.00
254;DHT22;590;48.772;8.846;2022-08-04T05:23:23;35.70;1.00
254;DHT22;590;48.772;8.846;2022-08-04T05:25:56;36.10;1.00
254;DHT22;590;48.772;8.846;2022-08-04T05:28:29;36.30;1.00
254;DHT22;590;48.772;8.846;2022-08-04T05:31:04;36.20;1.00
254;DHT22;590;48.772;8.846;2022-08-04T05:33:37;35.80;1.00
254;DHT22;590;48.772;8.846;2022-08-04T05:36:12;35.10;1.00
254;DHT22;590;48.772;8.846;2022-08-04T05:39:00;34.10;1.00
254;DHT22;590;48.772;8.846;2022-08-04T05:41:29;32.90;1.00
254;DHT22;590;48.772;8.846;2022-08-04T05:44:14;31.80;2.00
254;DHT22;590;48.772;8.846;2022-08-04T05:46:47;31.20;3.80
254;DHT22;590;48.772;8.846;2022-08-04T05:49:21;31.00;4.20
254;DHT22;590;48.772;8.846;2022-08-04T05:51:51;30.80;4.30
254;DHT22;590;48.772;8.846;2022-08-04T05:54:20;30.40;4.80
254;DHT22;590;48.772;8.846;2022-08-04T05:56:49;30.00;5.40
254;DHT22;590;48.772;8.846;2022-08-04T05:59:18;29.80;6.20
254;DHT22;590;48.772;8.846;2022-08-04T06:01:48;29.80;6.80
254;DHT22;590;48.772;8.846;2022-08-04T06:04:25;29.80;6.70
254;DHT22;590;48.772;8.846;2022-08-04T06:06:54;30.00;6.80
254;DHT22;590;48.772;8.846;2022-08-04T06:09:22;30.10;6.00
254;DHT22;590;48.772;8.846;2022-08-04T06:11:51;30.30;5.80
254;DHT22;590;48.772;8.846;2022-08-04T06:14:32;30.50;5.20
254;DHT22;590;48.772;8.846;2022-08-04T06:17:06;30.50;5.00
254;DHT22;590;48.772;8.846;2022-08-04T06:19:55;30.70;5.50
254;DHT22;590;48.772;8.846;2022-08-04T06:22:45;30.80;4.70
254;DHT22;590;48.772;8.846;2022-08-04T06:25:20;30.80;4.60
254;DHT22;590;48.772;8.846;2022-08-04T06:27:49;30.90;5.00
254;DHT22;590;48.772;8.846;2022-08-04T06:30:18;31.10;5.00
254;DHT22;590;48.772;8.846;2022-08-04T06:32:49;31.40;4.80
254;DHT22;590;48.772;8.846;2022-08-04T06:35:31;31.70;4.20
254;DHT22;590;48.772;8.846;2022-08-04T06:38:00;32.00;3.10
254;DHT22;590;48.772;8.846;2022-08-04T06:40:30;32.30;3.40
254;DHT22;590;48.772;8.846;2022-08-04T06:43:01;32.60;3.00
254;DHT22;590;48.772;8.846;2022-08-04T06:45:32;32.80;2.30
254;DHT22;590;48.772;8.846;2022-08-04T06:48:04;33.10;2.00
254;DHT22;590;48.772;8.846;2022-08-04T06:50:34;33.30;1.90
254;DHT22;590;48.772;8.846;2022-08-04T06:53:23;33.60;1.70
254;DHT22;590;48.772;8.846;2022-08-04T06:55:52;33.80;1.00
254;DHT22;590;48.772;8.846;2022-08-04T06:58:21;34.10;1.00
254;DHT22;590;48.772;8.846;2022-08-04T07:00:51;34.30;1.00
254;DHT22;590;48.772;8.846;2022-08-04T07:03:21;34.70;1.00
254;DHT22;590;48.772;8.846;2022-08-04T07:05:50;34.90;1.00
254;DHT22;590;48.772;8.846;2022-08-04T07:08:19;35.20;1.00
254;DHT22;590;48.772;8.846;2022-08-04T07:10:47;35.70;1.00
254;DHT22;590;48.772;8.846;2022-08-04T07:13:17;36.00;1.00
254;DHT22;590;48.772;8.846;2022-08-04T07:15:46;35.90;1.00
254;DHT22;590;48.772;8.846;2022-08-04T07:18:15;35.90;1.00
254;DHT22;590;48.772;8.846;2022-08-04T07:20:45;35.90;1.00
254;DHT22;590;48.772;8.846;2022-08-04T07:23:14;36.00;1.00
254;DHT22;590;48.772;8.846;2022-08-04T07:25:49;36.30;1.00
254;DHT22;590;48.772;8.846;2022-08-04T07:28:38;36.70;1.00
254;DHT22;590;48.772;8.846;2022-08-04T07:31:09;37.00;1.00
254;DHT22;590;48.772;8.846;2022-08-04T07:33:58;37.40;1.00
254;DHT22;590;48.772;8.846;2022-08-04T07:36:50;37.80;1.00
254;DHT22;590;48.772;8.846;2022-08-04T07:39:23;38.10;1.00
254;DHT22;590;48.772;8.846;2022-08-04T07:41:55;38.40;1.00
254;DHT22;590;48.772;8.846;2022-08-04T07:44:23;38.40;1.00
254;DHT22;590;48.772;8.846;2022-08-04T07:46:52;38.50;1.00
254;DHT22;590;48.772;8.846;2022-08-04T07:49:20;38.50;1.00
254;DHT22;590;48.772;8.846;2022-08-04T07:52:11;38.10;1.00
254;DHT22;590;48.772;8.846;2022-08-04T07:54:40;38.00;1.00
254;DHT22;590;48.772;8.846;2022-08-04T07:57:09;38.00;1.00
254;DHT22;590;48.772;8.846;2022-08-04T07:59:57;37.80;1.00
254;DHT22;590;48.772;8.846;2022-08-04T08:02:25;37.70;1.00
254;DHT22;590;48.772;8.846;2022-08-04T08:04:54;37.40;1.00
254;DHT22;590;48.772;8.846;2022-08-04T08:07:24;37.00;1.00
254;DHT22;590;48.772;8.846;2022-08-04T08:09:52;37.00;1.00
254;DHT22;590;48.772;8.846;2022-08-04T08:12:20;37.40;1.00
254;DHT22;590;48.772;8.846;2022-08-04T08:15:28;37.70;1.00
254;DHT22;590;48.772;8.846;2022-08-04T08:17:56;38.10;1.00
254;DHT22;590;48.772;8.846;2022-08-04T08:20:28;38.20;1.00
254;DHT22;590;48.772;8.846;2022-08-04T08:23:00;38.40;1.00
254;DHT22;590;48.772;8.846;2022-08-04T08:25:29;38.50;1.00
254;DHT22;590;48.772;8.846;2022-08-04T08:27:58;38.40;1.00
254;DHT22;590;48.772;8.846;2022-08-04T08:30:27;38.70;1.00
254;DHT22;590;48.772;8.846;2022-08-04T08:32:59;38.60;1.00
254;DHT22;590;48.772;8.846;2022-08-04T08:35:33;38.50;1.00
254;DHT22;590;48.772;8.846;2022-08-04T08:38:27;38.60;1.00
254;DHT22;590;48.772;8.846;2022-08-04T08:41:14;38.40;1.00
254;DHT22;590;48.772;8.846;2022-08-04T08:44:00;38.50;1.00
254;DHT22;590;48.772;8.846;2022-08-04T08:46:44;38.80;1.00
254;DHT22;590;48.772;8.846;2022-08-04T08:52:42;39.20;1.00
254;DHT22;590;48.772;8.846;2022-08-04T08:55:44;39.30;1.00
254;DHT22;590;48.772;8.846;2022-08-04T08:58:27;39.20;1.00
254;DHT22;590;48.772;8.846;2022-08-04T09:01:06;39.30;1.00
254;DHT22;590;48.772;8.846;2022-08-04T09:04:04;39.10;1.00
254;DHT22;590;48.772;8.846;2022-08-04T09:07:01;38.90;1.00
254;DHT22;590;48.772;8.846;2022-08-04T09:09:46;38.80;1.00
254;DHT22;590;48.772;8.846;2022-08-04T09:12:21;39.00;1.00
254;DHT22;590;48.772;8.846;2022-08-04T09:14:57;39.10;1.00
254;DHT22;590;48.772;8.846;2022-08-04T09:17:29;39.50;1.00
254;DHT22;590;48.772;8.846;2022-08-04T09:20:02;39.80;1.00
254;DHT22;590;48.772;8.846;2022-08-04T09:22:43;40.10;1.00
254;DHT22;590;48.772;8.846;2022-08-04T09:25:21;40.30;1.00
254;DHT22;590;48.772;8.846;2022-08-04T09:27:54;40.40;1.00
254;DHT22;590;48.772;8.846;2022-08-04T09:30:28;40.60;1.00
254;DHT22;590;48.772;8.846;2022-08-04T09:33:09;40.70;1.00
254;DHT22;590;48.772;8.846;2022-08-04T09:35:48;40.70;1.00
254;DHT22;590;48.772;8.846;2022-08-04T09:38:28;40.80;1.00
254;DHT22;590;48.772;8.846;2022-08-04T09:41:10;40.70;1.00
254;DHT22;590;48.772;8.846;2022-08-04T09:44:15;40.70;1.00
254;DHT22;590;48.772;8.846;2022-08-04T09:47:12;40.60;1.00
254;DHT22;590;48.772;8.846;2022-08-04T09:49:46;40.40;1.00
254;DHT22;590;48.772;8.846;2022-08-04T09:52:25;40.30;1.00
254;DHT22;590;48.772;8.846;2022-08-04T09:55:03;40.20;1.00
254;DHT22;590;48.772;8.846;2022-08-04T09:57:50;39.90;1.00
254;DHT22;590;48.772;8.846;2022-08-04T10:00:22;39.90;1.00
254;DHT22;590;48.772;8.846;2022-08-04T10:03:09;39.80;1.00
254;DHT22;590;48.772;8.846;2022-08-04T10:05:54;39.40;1.00
254;DHT22;590;48.772;8.846;2022-08-04T10:08:38;39.30;1.00
254;DHT22;590;48.772;8.846;2022-08-04T10:11:13;39.20;1.00
254;DHT22;590;48.772;8.846;2022-08-04T10:13:48;39.10;1.00
254;DHT22;590;48.772;8.846;2022-08-04T10:16:33;38.60;1.00
254;DHT22;590;48.772;8.846;2022-08-04T10:19:14;38.60;1.00
254;DHT22;590;48.772;8.846;2022-08-04T10:21:53;38.70;1.00
254;DHT22;590;48.772;8.846;2022-08-04T10:24:52;39.00;1.00
254;DHT22;590;48.772;8.846;2022-08-04T10:27:28;39.40;1.00
254;DHT22;590;48.772;8.846;2022-08-04T10:30:03;39.70;1.00
254;DHT22;590;48.772;8.846;2022-08-04T10:32:46;40.00;1.00
254;DHT22;590;48.772;8.846;2022-08-04T10:35:18;40.10;1.00
254;DHT22;590;48.772;8.846;2022-08-04T10:37:58;40.00;1.00
254;DHT22;590;48.772;8.846;2022-08-04T10:40:31;39.40;1.00
254;DHT22;590;48.772;8.846;2022-08-04T10:43:08;38.50;1.00
254;DHT22;590;48.772;8.846;2022-08-04T10:45:52;38.10;1.00
254;DHT22;590;48.772;8.846;2022-08-04T10:48:35;38.00;1.00
254;DHT22;590;48.772;8.846;2022-08-04T10:51:14;37.80;1.00
254;DHT22;590;48.772;8.846;2022-08-04T10:53:48;37.50;1.00
254;DHT22;590;48.772;8.846;2022-08-04T10:56:28;37.20;1.00
254;DHT22;590;48.772;8.846;2022-08-04T10:59:03;37.20;1.00
254;DHT22;590;48.772;8.846;2022-08-04T11:01:37;36.90;1.00
254;DHT22;590;48.772;8.846;2022-08-04T11:04:36;36.70;1.00
254;DHT22;590;48.772;8.846;2022-08-04T11:07:08;36.60;1.00
254;DHT22;590;48.772;8.846;2022-08-04T11:09:38;36.80;1.00
254;DHT22;590;48.772;8.846;2022-08-04T11:12:11;36.90;1.00
254;DHT22;590;48.772;8.846;2022-08-04T11:14:49;36.90;1.00
254;DHT22;590;48.772;8.846;2022-08-04T11:17:20;37.20;1.00
254;DHT22;590;48.772;8.846;2022-08-04T11:19:59;37.50;1.00
254;DHT22;590;48.772;8.846;2022-08-04T11:22:54;37.70;1.00
254;DHT22;590;48.772;8.846;2022-08-04T11:25:28;37.90;1.00
254;DHT22;590;48.772;8.846;2022-08-04T11:28:05;38.10;1.00
254;DHT22;590;48.772;8.846;2022-08-04T11:30:42;38.10;1.00
254;DHT22;590;48.772;8.846;2022-08-04T11:33:24;38.00;1.00
254;DHT22;590;48.772;8.846;2022-08-04T11:36:01;37.90;1.00
254;DHT22;590;48.772;8.846;2022-08-04T11:38:36;38.00;1.00
254;DHT22;590;48.772;8.846;2022-08-04T11:41:08;38.10;1.00
254;DHT22;590;48.772;8.846;2022-08-04T11:43:42;38.20;1.00
254;DHT22;590;48.772;8.846;2022-08-04T11:46:33;38.40;1.00
254;DHT22;590;48.772;8.846;2022-08-04T11:49:06;38.50;1.00
254;DHT22;590;48.772;8.846;2022-08-04T11:51:36;38.70;1.00
254;DHT22;590;48.772;8.846;2022-08-04T11:54:05;39.00;1.00
254;DHT22;590;48.772;8.846;2022-08-04T11:56:33;39.10;1.00
254;DHT22;590;48.772;8.846;2022-08-04T11:59:05;39.10;1.00
254;DHT22;590;48.772;8.846;2022-08-04T12:01:41;39.20;1.00
254;DHT22;590;48.772;8.846;2022-08-04T12:04:20;39.10;1.00
254;DHT22;590;48.772;8.846;2022-08-04T12:07:01;39.10;1.00
254;DHT22;590;48.772;8.846;2022-08-04T12:09:57;39.20;1.00
254;DHT22;590;48.772;8.846;2022-08-04T12:12:40;39.40;1.00
254;DHT22;590;48.772;8.846;2022-08-04T12:15:17;39.20;1.00
254;DHT22;590;48.772;8.846;2022-08-04T12:17:53;39.00;1.00
254;DHT22;590;48.772;8.846;2022-08-04T12:20:30;38.50;1.00
254;DHT22;590;48.772;8.846;2022-08-04T12:23:16;38.10;1.00
254;DHT22;590;48.772;8.846;2022-08-04T12:25:52;37.70;1.00
254;DHT22;590;48.772;8.846;2022-08-04T12:28:28;37.30;1.00
254;DHT22;590;48.772;8.846;2022-08-04T12:31:20;36.90;1.00
254;DHT22;590;48.772;8.846;2022-08-04T12:33:53;36.60;1.00
254;DHT22;590;48.772;8.846;2022-08-04T12:36:36;36.50;1.00
254;DHT22;590;48.772;8.846;2022-08-04T12:39:13;36.40;1.00
254;DHT22;590;48.772;8.846;2022-08-04T12:41:50;36.30;1.00
254;DHT22;590;48.772;8.846;2022-08-04T12:44:19;36.20;1.00
254;DHT22;590;48.772;8.846;2022-08-04T12:47:06;36.00;1.00
254;DHT22;590;48.772;8.846;2022-08-04T12:49:56;36.00;1.00
254;DHT22;590;48.772;8.846;2022-08-04T12:52:30;36.10;1.00
254;DHT22;590;48.772;8.846;2022-08-04T12:55:22;36.20;1.00
254;DHT22;590;48.772;8.846;2022-08-04T12:57:51;36.40;1.00
254;DHT22;590;48.772;8.846;2022-08-04T13:00:25;36.60;1.00
254;DHT22;590;48.772;8.846;2022-08-04T13:03:04;36.70;1.00
254;DHT22;590;48.772;8.846;2022-08-04T13:05:38;36.90;1.00
254;DHT22;590;48.772;8.846;2022-08-04T13:08:08;37.10;1.00
254;DHT22;590;48.772;8.846;2022-08-04T13:10:40;37.30;1.00
254;DHT22;590;48.772;8.846;2022-08-04T13:13:14;37.50;1.00
254;DHT22;590;48.772;8.846;2022-08-04T13:15:53;37.40;1.00
254;DHT22;590;48.772;8.846;2022-08-04T13:18:23;37.30;1.00
254;DHT22;590;48.772;8.846;2022-08-04T13:20:56;37.20;1.00
254;DHT22;590;48.772;8.846;2022-08-04T13:23:34;37.10;1.00
254;DHT22;590;48.772;8.846;2022-08-04T13:26:25;36.90;1.00
254;DHT22;590;48.772;8.846;2022-08-04T13:29:14;37.00;1.00
254;DHT22;590;48.772;8.846;2022-08-04T13:31:45;37.10;1.00
254;DHT22;590;48.772;8.846;2022-08-04T13:34:19;37.20;1.00
254;DHT22;590;48.772;8.846;2022-08-04T13:36:49;37.30;1.00
254;DHT22;590;48.772;8.846;2022-08-04T13:39:22;37.40;1.00
254;DHT22;590;48.772;8.846;2022-08-04T13:41:54;37.30;1.00
254;DHT22;590;48.772;8.846;2022-08-04T13:44:27;37.20;1.00
254;DHT22;590;48.772;8.846;2022-08-04T13:46:58;37.00;1.00
254;DHT22;590;48.772;8.846;2022-08-04T13:49:28;36.90;1.00
254;DHT22;590;48.772;8.846;2022-08-04T13:52:16;36.80;1.00
254;DHT22;590;48.772;8.846;2022-08-04T13:54:46;36.80;1.00
254;DHT22;590;48.772;8.846;2022-08-04T13:57:27;36.80;1.00
254;DHT22;590;48.772;8.846;2022-08-04T13:59:59;36.80;1.00
254;DHT22;590;48.772;8.846;2022-08-04T14:02:33;37.00;1.00
254;DHT22;590;48.772;8.846;2022-08-04T14:05:06;37.10;1.00
254;DHT22;590;48.772;8.846;2022-08-04T14:07:46;37.10;1.00
254;DHT22;590;48.772;8.846;2022-08-04T14:10:14;37.00;1.00
254;DHT22;590;48.772;8.846;2022-08-04T14:12:45;36.80;1.00
254;DHT22;590;48.772;8.846;2022-08-04T14:15:35;36.70;1.00
254;DHT22;590;48.772;8.846;2022-08-04T14:18:25;36.60;1.00
254;DHT22;590;48.772;8.846;2022-08-04T14:21:03;36.50;1.00
254;DHT22;590;48.772;8.846;2022-08-04T14:23:40;36.30;1.00
254;DHT22;590;48.772;8.846;2022-08-04T14:26:18;36.30;1.00
254;DHT22;590;48.772;8.846;2022-08-04T14:29:10;36.20;1.00
254;DHT22;590;48.772;8.846;2022-08-04T14:32:01;36.20;1.00
254;DHT22;590;48.772;8.846;2022-08-04T14:34:40;36.30;1.00
254;DHT22;590;48.772;8.846;2022-08-04T14:37:13;36.40;1.00
254;DHT22;590;48.772;8.846;2022-08-04T14:39:47;36.50;1.00
254;DHT22;590;48.772;8.846;2022-08-04T14:42:41;36.50;1.00
254;DHT22;590;48.772;8.846;2022-08-04T14:45:10;36.60;1.00
254;DHT22;590;48.772;8.846;2022-08-04T14:47:41;36.70;1.00
254;DHT22;590;48.772;8.846;2022-08-04T14:50:20;36.60;1.00
254;DHT22;590;48.772;8.846;2022-08-04T14:53:02;36.70;1.00
254;DHT22;590;48.772;8.846;2022-08-04T14:55:30;36.60;1.00
254;DHT22;590;48.772;8.846;2022-08-04T14:57:58;36.60;1.00
254;DHT22;590;48.772;8.846;2022-08-04T15:00:48;36.50;1.00
254;DHT22;590;48.772;8.846;2022-08-04T15:03:19;36.40;1.00
254;DHT22;590;48.772;8.846;2022-08-04T15:05:48;36.30;1.00
254;DHT22;590;48.772;8.846;2022-08-04T15:08:30;36.20;1.00
254;DHT22;590;48.772;8.846;2022-08-04T15:10:59;36.10;1.00
254;DHT22;590;48.772;8.846;2022-08-04T15:13:29;36.00;1.00
254;DHT22;590;48.772;8.846;2022-08-04T15:16:00;35.90;1.00
254;DHT22;590;48.772;8.846;2022-08-04T15:18:35;35.80;1.00
254;DHT22;590;48.772;8.846;2022-08-04T15:21:06;35.70;1.00
254;DHT22;590;48.772;8.846;2022-08-04T15:23:35;35.70;1.00
254;DHT22;590;48.772;8.846;2022-08-04T15:26:08;35.60;1.00
254;DHT22;590;48.772;8.846;2022-08-04T15:28:38;35.60;1.00
254;DHT22;590;48.772;8.846;2022-08-04T15:31:08;35.50;1.00
254;DHT22;590;48.772;8.846;2022-08-04T15:33:57;35.50;1.00
254;DHT22;590;48.772;8.846;2022-08-04T15:36:41;35.50;1.00
254;DHT22;590;48.772;8.846;2022-08-04T15:39:30;35.40;1.00
254;DHT22;590;48.772;8.846;2022-08-04T15:42:10;35.30;1.00
254;DHT22;590;48.772;8.846;2022-08-04T15:48:32;35.10;1.00
254;DHT22;590;48.772;8.846;2022-08-04T15:51:08;35.10;1.00
254;DHT22;590;48.772;8.846;2022-08-04T15:56:55;35.10;1.00
254;DHT22;590;48.772;8.846;2022-08-04T15:59:54;35.10;1.00
254;DHT22;590;48.772;8.846;2022-08-04T16:02:35;35.10;1.00
254;DHT22;590;48.772;8.846;2022-08-04T16:05:34;35.20;1.00
254;DHT22;590;48.772;8.846;2022-08-04T16:08:13;35.20;1.00
254;DHT22;590;48.772;8.846;2022-08-04T16:10:47;35.20;1.00
254;DHT22;590;48.772;8.846;2022-08-04T16:13:17;35.10;1.00
254;DHT22;590;48.772;8.846;2022-08-04T16:15:48;35.00;1.00
254;DHT22;590;48.772;8.846;2022-08-04T16:18:39;35.00;1.00
254;DHT22;590;48.772;8.846;2022-08-04T16:21:24;34.90;1.00
254;DHT22;590;48.772;8.846;2022-08-04T16:26:50;34.80;1.00
254;DHT22;590;48.772;8.846;2022-08-04T16:29:30;34.70;1.00
254;DHT22;590;48.772;8.846;2022-08-04T16:32:13;34.70;1.00
254;DHT22;590;48.772;8.846;2022-08-04T16:34:45;34.60;1.00
254;DHT22;590;48.772;8.846;2022-08-04T16:37:28;34.60;1.00
254;DHT22;590;48.772;8.846;2022-08-04T16:40:25;34.60;1.00
254;DHT22;590;48.772;8.846;2022-08-04T16:43:03;34.60;1.00
254;DHT22;590;48.772;8.846;2022-08-04T16:45:52;34.60;1.00
254;DHT22;590;48.772;8.846;2022-08-04T16:48:22;34.60;1.00
254;DHT22;590;48.772;8.846;2022-08-04T16:50:56;34.50;1.00
254;DHT22;590;48.772;8.846;2022-08-04T16:53:37;34.60;1.00
254;DHT22;590;48.772;8.846;2022-08-04T16:56:30;34.60;1.00
254;DHT22;590;48.772;8.846;2022-08-04T16:59:05;34.50;1.00
254;DHT22;590;48.772;8.846;2022-08-04T17:01:34;34.60;1.00
254;DHT22;590;48.772;8.846;2022-08-04T17:04:03;34.60;1.00
254;DHT22;590;48.772;8.846;2022-08-04T17:06:34;34.60;1.00
254;DHT22;590;48.772;8.846;2022-08-04T17:09:09;34.50;1.00
254;DHT22;590;48.772;8.846;2022-08-04T17:11:38;34.60;1.00
254;DHT22;590;48.772;8.846;2022-08-04T17:14:07;34.50;1.00
254;DHT22;590;48.772;8.846;2022-08-04T17:16:38;34.50;1.00
254;DHT22;590;48.772;8.846;2022-08-04T17:19:08;34.50;1.00
254;DHT22;590;48.772;8.846;2022-08-04T17:21:53;34.50;1.00
254;DHT22;590;48.772;8.846;2022-08-04T17:24:30;34.40;1.00
254;DHT22;590;48.772;8.846;2022-08-04T17:26:58;34.40;1.00
254;DHT22;590;48.772;8.846;2022-08-04T17:29:30;34.30;1.00
254;DHT22;590;48.772;8.846;2022-08-04T17:32:15;34.30;1.00
254;DHT22;590;48.772;8.846;2022-08-04T17:34:48;34.20;1.00
254;DHT22;590;48.772;8.846;2022-08-04T17:37:16;34.20;1.00
254;DHT22;590;48.772;8.846;2022-08-04T17:40:11;34.20;1.00
254;DHT22;590;48.772;8.846;2022-08-04T17:42:40;34.10;1.00
254;DHT22;590;48.772;8.846;2022-08-04T17:45:13;34.10;1.00
254;DHT22;590;48.772;8.846;2022-08-04T17:48:06;34.10;1.00
254;DHT22;590;48.772;8.846;2022-08-04T17:50:34;34.10;1.00
254;DHT22;590;48.772;8.846;2022-08-04T17:53:31;34.00;1.00
254;DHT22;590;48.772;8.846;2022-08-04T17:56:29;34.00;1.00
254;DHT22;590;48.772;8.846;2022-08-04T17:59:12;34.00;1.00
254;DHT22;590;48.772;8.846;2022-08-04T18:02:02;33.90;1.00
254;DHT22;590;48.772;8.846;2022-08-04T18:04:36;33.80;1.00
254;DHT22;590;48.772;8.846;2022-08-04T18:07:34;33.70;1.00
254;DHT22;590;48.772;8.846;2022-08-04T18:10:34;33.70;1.00
254;DHT22;590;48.772;8.846;2022-08-04T18:13:24;33.60;1.00
254;DHT22;590;48.772;8.846;2022-08-04T18:16:03;33.50;1.00
254;DHT22;590;48.772;8.846;2022-08-04T18:18:31;33.40;1.00
254;DHT22;590;48.772;8.846;2022-08-04T18:21:04;33.30;1.00
254;DHT22;590;48.772;8.846;2022-08-04T18:23:32;33.30;1.00
254;DHT22;590;48.772;8.846;2022-08-04T18:26:16;33.20;1.00
254;DHT22;590;48.772;8.846;2022-08-04T18:28:50;33.10;1.00
254;DHT22;590;48.772;8.846;2022-08-04T18:31:18;33.00;1.00
254;DHT22;590;48.772;8.846;2022-08-04T18:33:48;32.90;1.00
254;DHT22;590;48.772;8.846;2022-08-04T18:36:36;32.80;1.00
254;DHT22;590;48.772;8.846;2022-08-04T18:39:05;32.70;1.00
254;DHT22;590;48.772;8.846;2022-08-04T18:41:39;32.60;1.00
254;DHT22;590;48.772;8.846;2022-08-04T18:44:29;32.50;1.00
254;DHT22;590;48.772;8.846;2022-08-04T18:46:57;32.30;1.20